createdAt,value
2019-03-28T00:00:46.979Z,1.60
2019-03-28T00:01:46.936Z,1.30
2019-03-28T00:02:46.913Z,1.50
2019-03-28T00:03:46.870Z,1.90
2019-03-28T00:04:46.855Z,1.60
2019-03-28T00:05:46.809Z,1.30
2019-03-28T00:06:46.775Z,1.70
2019-03-28T00:07:46.752Z,1.40
2019-03-28T00:08:46.702Z,1.40
2019-03-28T00:09:46.686Z,1.10
2019-03-28T00:10:46.655Z,1.70
2019-03-28T00:11:46.638Z,1.00
2019-03-28T00:12:46.597Z,0.80
2019-03-28T00:13:46.556Z,0.90
2019-03-28T00:14:46.546Z,1.20
2019-03-28T00:15:46.483Z,1.10
2019-03-28T00:16:46.508Z,0.70
2019-03-28T00:17:46.425Z,1.00
2019-03-28T00:18:46.370Z,1.60
2019-03-28T00:19:46.366Z,1.90
2019-03-28T00:20:46.317Z,1.00
2019-03-28T00:21:46.283Z,1.20
2019-03-28T00:22:46.235Z,1.00
2019-03-28T00:23:46.258Z,0.60
2019-03-28T00:24:46.236Z,1.10
2019-03-28T00:25:46.145Z,1.20
2019-03-28T00:26:46.118Z,2.00
2019-03-28T00:27:46.262Z,16.20
2019-03-28T00:28:46.040Z,34.90
2019-03-28T00:29:46.009Z,28.00
2019-03-28T00:30:45.973Z,26.50
2019-03-28T00:31:47.874Z,21.20
2019-03-28T00:32:45.904Z,18.10
2019-03-28T00:33:45.880Z,12.10
2019-03-28T00:34:45.841Z,9.90
2019-03-28T00:35:45.821Z,7.90
2019-03-28T00:36:45.783Z,6.80
2019-03-28T00:37:45.875Z,6.70
2019-03-28T00:38:45.717Z,4.20
2019-03-28T00:39:45.695Z,3.40
2019-03-28T00:40:45.641Z,3.10
2019-03-28T00:41:45.608Z,3.00
2019-03-28T00:42:45.582Z,2.50
2019-03-28T00:43:45.546Z,2.00
2019-03-28T00:44:45.517Z,2.00
2019-03-28T00:45:45.474Z,1.70
2019-03-28T00:46:46.169Z,1.80
2019-03-28T00:47:45.572Z,1.80
2019-03-28T00:48:45.375Z,1.40
2019-03-28T00:49:45.355Z,1.10
2019-03-28T00:50:45.363Z,1.30
2019-03-28T00:51:45.277Z,1.80
2019-03-28T00:52:45.245Z,1.30
2019-03-28T00:53:45.468Z,1.30
2019-03-28T00:54:46.161Z,2.10
2019-03-28T00:55:45.143Z,1.10
2019-03-28T00:56:47.247Z,1.30
2019-03-28T00:57:45.096Z,1.20
2019-03-28T00:58:45.058Z,1.20
2019-03-28T00:59:45.006Z,1.10
2019-03-28T01:00:44.985Z,1.10
2019-03-28T01:01:44.944Z,1.00
2019-03-28T01:02:44.933Z,1.30
2019-03-28T01:03:44.882Z,2.30
2019-03-28T01:04:44.898Z,0.70
2019-03-28T01:05:44.808Z,0.90
2019-03-28T01:06:44.777Z,1.40
2019-03-28T01:07:44.749Z,1.10
2019-03-28T01:08:44.705Z,1.40
2019-03-28T01:09:44.687Z,1.60
2019-03-28T01:10:44.648Z,1.60
2019-03-28T01:11:44.632Z,0.90
2019-03-28T01:12:45.822Z,0.90
2019-03-28T01:13:44.552Z,0.80
2019-03-28T01:14:44.521Z,0.80
2019-03-28T01:15:44.475Z,0.70
2019-03-28T01:16:44.445Z,1.10
2019-03-28T01:17:44.415Z,1.30
2019-03-28T01:18:45.125Z,1.00
2019-03-28T01:19:44.378Z,1.00
2019-03-28T01:20:44.317Z,1.50
2019-03-28T01:21:44.281Z,1.10
2019-03-28T01:22:44.262Z,2.10
2019-03-28T01:23:44.222Z,2.20
2019-03-28T01:24:44.180Z,0.80
2019-03-28T01:25:44.161Z,1.20
2019-03-28T01:26:51.845Z,1.20
2019-03-28T01:27:44.119Z,1.50
2019-03-28T01:28:44.077Z,1.10
2019-03-28T01:29:44.078Z,0.80
2019-03-28T01:30:43.979Z,1.50
2019-03-28T01:31:43.947Z,0.90
2019-03-28T01:32:43.941Z,1.30
2019-03-28T01:33:43.885Z,1.10
2019-03-28T01:34:43.858Z,0.80
2019-03-28T01:35:43.807Z,0.80
2019-03-28T01:36:43.803Z,1.00
2019-03-28T01:37:43.756Z,0.80
2019-03-28T01:38:44.426Z,0.90
2019-03-28T01:39:43.675Z,1.10
2019-03-28T01:40:43.647Z,1.60
2019-03-28T01:41:43.623Z,0.80
2019-03-28T01:42:43.578Z,1.10
2019-03-28T01:43:43.589Z,1.30
2019-03-28T01:44:43.525Z,3.00
2019-03-28T01:45:43.480Z,0.90
2019-03-28T01:46:43.448Z,0.90
2019-03-28T01:47:43.427Z,1.30
2019-03-28T01:48:43.391Z,1.00
2019-03-28T01:49:43.344Z,0.90
2019-03-28T01:50:43.326Z,1.10
2019-03-28T01:51:43.277Z,0.90
2019-03-28T01:52:43.263Z,1.40
2019-03-28T01:53:43.215Z,0.90
2019-03-28T01:54:43.193Z,1.60
2019-03-28T01:56:43.130Z,0.70
2019-03-28T01:57:43.085Z,0.90
2019-03-28T01:58:43.043Z,0.90
2019-03-28T01:59:43.050Z,0.70
2019-03-28T02:00:42.978Z,1.00
2019-03-28T02:01:42.954Z,0.90
2019-03-28T02:02:42.912Z,3.00
2019-03-28T02:03:42.890Z,0.60
2019-03-28T02:04:42.859Z,0.80
2019-03-28T02:05:43.323Z,1.20
2019-03-28T02:06:42.783Z,0.80
2019-03-28T02:07:42.750Z,0.70
2019-03-28T02:08:42.738Z,1.00
2019-03-28T02:09:42.685Z,0.90
2019-03-28T02:10:42.662Z,0.70
2019-03-28T02:11:42.626Z,0.70
2019-03-28T02:12:42.586Z,1.00
2019-03-28T02:13:42.571Z,1.10
2019-03-28T02:14:42.509Z,0.70
2019-03-28T02:15:42.476Z,2.40
2019-03-28T02:16:42.520Z,1.20
2019-03-28T02:17:42.497Z,1.90
2019-03-28T02:18:42.386Z,0.90
2019-03-28T02:19:42.417Z,1.00
2019-03-28T02:20:42.310Z,1.10
2019-03-28T02:21:42.291Z,1.10
2019-03-28T02:22:42.288Z,0.80
2019-03-28T02:23:42.212Z,1.40
2019-03-28T02:24:42.184Z,0.90
2019-03-28T02:25:42.193Z,0.80
2019-03-28T02:26:42.110Z,0.80
2019-03-28T02:27:42.094Z,0.80
2019-03-28T02:28:42.045Z,1.40
2019-03-28T02:29:42.088Z,2.20
2019-03-28T02:30:41.994Z,0.80
2019-03-28T02:31:42.926Z,1.10
2019-03-28T02:32:41.919Z,1.10
2019-03-28T02:33:41.895Z,0.70
2019-03-28T02:34:41.853Z,0.60
2019-03-28T02:35:41.830Z,0.80
2019-03-28T02:36:41.781Z,0.80
2019-03-28T02:37:41.777Z,3.10
2019-03-28T02:38:41.724Z,1.00
2019-03-28T02:39:41.695Z,0.90
2019-03-28T02:40:42.565Z,1.20
2019-03-28T02:41:41.615Z,0.90
2019-03-28T02:42:41.575Z,1.50
2019-03-28T02:43:41.559Z,1.00
2019-03-28T02:44:41.540Z,1.10
2019-03-28T02:45:41.506Z,0.80
2019-03-28T02:46:41.465Z,0.90
2019-03-28T02:47:41.431Z,1.00
2019-03-28T02:48:41.546Z,1.20
2019-03-28T02:49:41.454Z,1.30
2019-03-28T02:50:41.317Z,0.80
2019-03-28T02:51:41.291Z,1.20
2019-03-28T02:52:41.258Z,1.00
2019-03-28T02:53:41.221Z,0.90
2019-03-28T02:54:41.187Z,1.30
2019-03-28T02:55:41.145Z,1.10
2019-03-28T02:56:41.743Z,1.10
2019-03-28T02:57:43.610Z,1.00
2019-03-28T02:58:41.058Z,0.90
2019-03-28T02:59:41.024Z,1.00
2019-03-28T03:00:40.986Z,0.80
2019-03-28T03:01:40.946Z,1.00
2019-03-28T03:02:40.926Z,1.00
2019-03-28T03:03:40.894Z,0.80
2019-03-28T03:04:40.864Z,0.70
2019-03-28T03:05:40.808Z,1.00
2019-03-28T03:06:40.798Z,1.60
2019-03-28T03:07:41.716Z,1.30
2019-03-28T03:08:40.731Z,0.80
2019-03-28T03:09:40.718Z,1.20
2019-03-28T03:10:40.656Z,1.00
2019-03-28T03:11:42.766Z,0.90
2019-03-28T03:12:40.577Z,0.80
2019-03-28T03:13:40.554Z,0.90
2019-03-28T03:14:40.678Z,1.10
2019-03-28T03:15:40.477Z,0.90
2019-03-28T03:16:40.447Z,0.80
2019-03-28T03:17:41.489Z,1.50
2019-03-28T03:18:40.395Z,1.00
2019-03-28T03:19:40.385Z,0.90
2019-03-28T03:20:40.616Z,1.10
2019-03-28T03:21:40.282Z,1.40
2019-03-28T03:22:40.258Z,0.90
2019-03-28T03:23:40.227Z,0.70
2019-03-28T03:24:40.179Z,1.00
2019-03-28T03:25:40.150Z,0.80
2019-03-28T03:26:40.230Z,1.10
2019-03-28T03:27:56.368Z,0.80
2019-03-28T03:28:40.095Z,1.20
2019-03-28T03:29:40.023Z,1.20
2019-03-28T03:30:39.978Z,1.10
2019-03-28T03:31:39.945Z,0.90
2019-03-28T03:32:39.915Z,1.20
2019-03-28T03:33:40.019Z,1.80
2019-03-28T03:34:39.883Z,0.80
2019-03-28T03:36:39.779Z,1.10
2019-03-28T03:37:39.741Z,1.20
2019-03-28T03:38:39.712Z,0.70
2019-03-28T03:39:39.869Z,1.10
2019-03-28T03:40:39.652Z,1.10
2019-03-28T03:41:39.616Z,1.40
2019-03-28T03:42:39.645Z,0.80
2019-03-28T03:43:39.550Z,1.00
2019-03-28T03:44:39.513Z,1.10
2019-03-28T03:45:39.484Z,1.30
2019-03-28T03:46:39.608Z,0.90
2019-03-28T03:47:39.451Z,1.00
2019-03-28T03:48:39.379Z,0.80
2019-03-28T03:49:39.346Z,0.80
2019-03-28T03:50:39.313Z,0.70
2019-03-28T03:51:39.278Z,0.70
2019-03-28T03:52:39.255Z,0.90
2019-03-28T03:53:39.221Z,0.90
2019-03-28T03:54:39.180Z,0.80
2019-03-28T03:55:39.146Z,2.00
2019-03-28T03:56:39.109Z,0.90
2019-03-28T03:57:39.085Z,0.90
2019-03-28T03:58:39.044Z,0.60
2019-03-28T03:59:39.022Z,1.20
2019-03-28T04:00:38.991Z,1.00
2019-03-28T04:01:38.941Z,1.10
2019-03-28T04:02:38.916Z,0.90
2019-03-28T04:03:38.883Z,2.00
2019-03-28T04:04:38.849Z,1.10
2019-03-28T04:05:38.884Z,0.90
2019-03-28T04:06:38.781Z,0.80
2019-03-28T04:07:38.860Z,1.20
2019-03-28T04:08:38.718Z,0.90
2019-03-28T04:09:38.678Z,1.20
2019-03-28T04:10:38.652Z,2.60
2019-03-28T04:11:38.607Z,1.10
2019-03-28T04:12:38.579Z,1.30
2019-03-28T04:13:38.578Z,1.00
2019-03-28T04:14:38.505Z,0.90
2019-03-28T04:15:38.478Z,1.30
2019-03-28T04:16:38.450Z,0.80
2019-03-28T04:17:38.418Z,1.70
2019-03-28T04:18:38.451Z,0.70
2019-03-28T04:19:38.345Z,1.30
2019-03-28T04:20:38.366Z,0.90
2019-03-28T04:21:38.279Z,2.00
2019-03-28T04:22:38.240Z,1.00
2019-03-28T04:23:38.208Z,1.20
2019-03-28T04:24:38.175Z,0.90
2019-03-28T04:25:38.148Z,1.40
2019-03-28T04:26:38.108Z,0.80
2019-03-28T04:28:38.569Z,0.10
2019-03-28T04:29:38.021Z,0.90
2019-03-28T04:30:38.010Z,0.80
2019-03-28T04:31:37.941Z,0.90
2019-03-28T04:32:37.908Z,1.40
2019-03-28T04:33:37.871Z,0.90
2019-03-28T04:34:37.842Z,1.40
2019-03-28T04:35:37.810Z,1.20
2019-03-28T04:36:37.771Z,1.40
2019-03-28T04:37:37.735Z,0.90
2019-03-28T04:38:37.702Z,1.20
2019-03-28T04:39:37.675Z,1.10
2019-03-28T04:40:37.638Z,1.00
2019-03-28T04:41:37.605Z,1.00
2019-03-28T04:42:37.573Z,1.50
2019-03-28T04:43:37.642Z,1.60
2019-03-28T04:44:37.510Z,1.30
2019-03-28T04:45:37.472Z,0.90
2019-03-28T04:46:37.448Z,1.80
2019-03-28T04:47:37.397Z,1.90
2019-03-28T04:48:37.367Z,0.90
2019-03-28T04:49:37.486Z,0.90
2019-03-28T04:50:37.300Z,0.90
2019-03-28T04:51:37.277Z,1.10
2019-03-28T04:52:37.230Z,1.00
2019-03-28T04:53:37.592Z,0.90
2019-03-28T04:54:37.180Z,1.70
2019-03-28T04:55:37.144Z,1.40
2019-03-28T04:56:37.125Z,0.60
2019-03-28T04:57:37.070Z,1.10
2019-03-28T04:58:44.308Z,1.60
2019-03-28T04:59:37.049Z,2.00
2019-03-28T05:00:36.962Z,1.10
2019-03-28T05:01:36.932Z,0.90
2019-03-28T05:02:36.902Z,1.20
2019-03-28T05:03:36.872Z,1.10
2019-03-28T05:04:36.860Z,0.70
2019-03-28T05:05:36.801Z,1.20
2019-03-28T05:06:38.041Z,0.90
2019-03-28T05:07:36.737Z,0.70
2019-03-28T05:08:36.699Z,0.70
2019-03-28T05:09:36.669Z,0.90
2019-03-28T05:10:36.687Z,1.00
2019-03-28T05:11:36.600Z,1.20
2019-03-28T05:12:36.568Z,0.90
2019-03-28T05:13:36.526Z,1.20
2019-03-28T05:14:36.498Z,0.80
2019-03-28T05:15:36.482Z,0.60
2019-03-28T05:16:36.584Z,0.80
2019-03-28T05:17:36.402Z,1.10
2019-03-28T05:18:36.364Z,1.20
2019-03-28T05:19:36.331Z,1.60
2019-03-28T05:20:36.312Z,0.90
2019-03-28T05:21:36.277Z,1.20
2019-03-28T05:22:36.227Z,1.10
2019-03-28T05:23:36.259Z,0.70
2019-03-28T05:24:36.168Z,0.90
2019-03-28T05:25:36.130Z,1.30
2019-03-28T05:26:36.098Z,1.60
2019-03-28T05:27:36.068Z,0.80
2019-03-28T05:28:36.027Z,1.40
2019-03-28T05:29:35.988Z,3.10
2019-03-28T05:30:35.964Z,1.20
2019-03-28T05:31:35.929Z,1.10
2019-03-28T05:32:35.906Z,0.80
2019-03-28T05:33:35.858Z,1.70
2019-03-28T05:34:35.835Z,1.20
2019-03-28T05:35:35.794Z,1.60
2019-03-28T05:36:35.754Z,0.90
2019-03-28T05:37:36.398Z,1.10
2019-03-28T05:38:35.692Z,1.30
2019-03-28T05:39:35.656Z,4.50
2019-03-28T05:40:36.488Z,0.80
2019-03-28T05:41:35.598Z,1.00
2019-03-28T05:42:35.715Z,1.00
2019-03-28T05:43:35.524Z,1.40
2019-03-28T05:44:35.507Z,1.80
2019-03-28T05:45:35.459Z,1.20
2019-03-28T05:46:35.423Z,1.50
2019-03-28T05:47:35.395Z,0.90
2019-03-28T05:48:35.354Z,0.70
2019-03-28T05:49:35.321Z,0.90
2019-03-28T05:50:35.292Z,1.20
2019-03-28T05:51:35.258Z,1.10
2019-03-28T05:52:35.225Z,0.90
2019-03-28T05:53:35.189Z,1.00
2019-03-28T05:54:35.155Z,1.50
2019-03-28T05:55:35.115Z,1.20
2019-03-28T05:56:35.087Z,0.80
2019-03-28T05:57:35.059Z,1.00
2019-03-28T05:58:35.022Z,1.20
2019-03-28T05:59:35.025Z,5.10
2019-03-28T06:00:34.963Z,0.70
2019-03-28T06:01:34.922Z,1.10
2019-03-28T06:02:34.896Z,1.20
2019-03-28T06:03:34.859Z,1.20
2019-03-28T06:04:34.833Z,0.90
2019-03-28T06:05:34.782Z,1.10
2019-03-28T06:06:34.863Z,1.40
2019-03-28T06:07:34.723Z,1.00
2019-03-28T06:08:34.687Z,1.10
2019-03-28T06:09:34.907Z,1.10
2019-03-28T06:10:34.619Z,1.20
2019-03-28T06:11:34.581Z,2.00
2019-03-28T06:12:34.558Z,1.10
2019-03-28T06:13:34.521Z,1.20
2019-03-28T06:14:34.514Z,0.80
2019-03-28T06:15:34.450Z,1.00
2019-03-28T06:16:34.424Z,0.90
2019-03-28T06:17:34.392Z,0.80
2019-03-28T06:18:34.357Z,0.80
2019-03-28T06:19:34.445Z,1.00
2019-03-28T06:20:34.315Z,0.70
2019-03-28T06:21:34.291Z,1.00
2019-03-28T06:22:34.219Z,0.90
2019-03-28T06:23:34.183Z,1.20
2019-03-28T06:24:34.151Z,1.10
2019-03-28T06:25:34.121Z,1.00
2019-03-28T06:26:34.075Z,1.20
2019-03-28T06:27:34.047Z,1.20
2019-03-28T06:28:34.010Z,0.80
2019-03-28T06:29:33.986Z,0.70
2019-03-28T06:30:33.943Z,1.50
2019-03-28T06:31:33.911Z,1.10
2019-03-28T06:32:42.959Z,1.00
2019-03-28T06:33:34.440Z,0.80
2019-03-28T06:34:33.813Z,1.20
2019-03-28T06:35:33.777Z,1.20
2019-03-28T06:36:33.767Z,0.80
2019-03-28T06:37:33.714Z,3.50
2019-03-28T06:38:33.680Z,1.10
2019-03-28T06:39:36.350Z,1.20
2019-03-28T06:40:33.604Z,2.20
2019-03-28T06:41:33.765Z,0.80
2019-03-28T06:42:33.541Z,0.70
2019-03-28T06:43:33.504Z,0.80
2019-03-28T06:44:33.472Z,0.90
2019-03-28T06:45:33.441Z,0.80
2019-03-28T06:46:33.414Z,0.90
2019-03-28T06:47:33.521Z,1.20
2019-03-28T06:48:33.337Z,1.30
2019-03-28T06:49:33.356Z,0.80
2019-03-28T06:50:33.275Z,0.90
2019-03-28T06:51:33.239Z,1.30
2019-03-28T06:52:33.202Z,0.90
2019-03-28T06:53:33.170Z,1.50
2019-03-28T06:54:33.137Z,0.80
2019-03-28T06:55:33.118Z,0.90
2019-03-28T06:56:33.071Z,1.20
2019-03-28T06:57:33.038Z,0.80
2019-03-28T06:58:33.114Z,1.00
2019-03-28T06:59:37.535Z,1.60
2019-03-28T07:00:32.945Z,1.20
2019-03-28T07:01:32.901Z,1.70
2019-03-28T07:02:32.872Z,0.90
2019-03-28T07:03:32.837Z,2.40
2019-03-28T07:04:32.813Z,1.90
2019-03-28T07:05:32.786Z,0.90
2019-03-28T07:06:32.736Z,1.30
2019-03-28T07:07:32.705Z,1.30
2019-03-28T07:08:32.814Z,1.00
2019-03-28T07:09:32.633Z,1.20
2019-03-28T07:10:32.603Z,1.20
2019-03-28T07:11:32.563Z,1.10
2019-03-28T07:12:32.533Z,1.30
2019-03-28T07:13:32.506Z,0.80
2019-03-28T07:14:32.614Z,1.00
2019-03-28T07:15:32.454Z,1.00
2019-03-28T07:16:32.401Z,1.20
2019-03-28T07:17:32.364Z,1.00
2019-03-28T07:18:32.332Z,0.80
2019-03-28T07:19:32.309Z,1.20
2019-03-28T07:20:32.261Z,0.90
2019-03-28T07:21:32.236Z,0.70
2019-03-28T07:22:32.205Z,0.90
2019-03-28T07:23:32.175Z,1.20
2019-03-28T07:24:32.129Z,0.90
2019-03-28T07:25:32.094Z,0.70
2019-03-28T07:26:32.061Z,1.40
2019-03-28T07:27:32.025Z,1.40
2019-03-28T07:28:31.997Z,1.00
2019-03-28T07:29:31.965Z,0.90
2019-03-28T07:30:31.923Z,1.00
2019-03-28T07:31:31.895Z,1.00
2019-03-28T07:32:31.861Z,1.40
2019-03-28T07:33:31.829Z,1.10
2019-03-28T07:34:31.803Z,1.10
2019-03-28T07:35:31.756Z,0.90
2019-03-28T07:36:31.737Z,1.20
2019-03-28T07:37:31.694Z,0.90
2019-03-28T07:38:31.657Z,1.10
2019-03-28T07:39:31.620Z,1.20
2019-03-28T07:40:33.496Z,1.40
2019-03-28T07:41:31.563Z,1.10
2019-03-28T07:42:31.523Z,1.30
2019-03-28T07:43:31.486Z,1.40
2019-03-28T07:44:31.466Z,0.80
2019-03-28T07:45:34.201Z,1.00
2019-03-28T07:46:31.403Z,0.80
2019-03-28T07:47:31.428Z,1.20
2019-03-28T07:48:31.324Z,1.30
2019-03-28T07:49:31.298Z,0.80
2019-03-28T07:50:33.476Z,1.10
2019-03-28T07:51:31.227Z,0.90
2019-03-28T07:52:31.186Z,0.90
2019-03-28T07:53:31.215Z,0.90
2019-03-28T07:54:31.136Z,0.90
2019-03-28T07:55:31.524Z,1.50
2019-03-28T07:56:31.057Z,1.00
2019-03-28T07:57:31.024Z,1.10
2019-03-28T07:58:30.985Z,1.10
2019-03-28T07:59:30.950Z,1.10
2019-03-28T08:00:30.916Z,0.60
2019-03-28T08:01:30.950Z,0.90
2019-03-28T08:02:30.847Z,1.30
2019-03-28T08:03:30.817Z,0.90
2019-03-28T08:04:30.786Z,0.90
2019-03-28T08:05:30.752Z,0.70
2019-03-28T08:06:30.901Z,0.90
2019-03-28T08:07:43.950Z,0.90
2019-03-28T08:08:38.622Z,0.80
2019-03-28T08:09:36.494Z,0.80
2019-03-28T08:10:30.576Z,1.20
2019-03-28T08:11:30.652Z,1.60
2019-03-28T08:12:30.704Z,0.70
2019-03-28T08:13:30.481Z,2.10
2019-03-28T08:14:30.439Z,1.00
2019-03-28T08:15:30.427Z,1.10
2019-03-28T08:16:30.385Z,0.90
2019-03-28T08:17:30.348Z,1.70
2019-03-28T08:18:30.312Z,1.20
2019-03-28T08:19:30.286Z,0.90
2019-03-28T08:20:30.245Z,0.80
2019-03-28T08:21:30.215Z,1.20
2019-03-28T08:22:30.180Z,1.20
2019-03-28T08:23:30.145Z,1.30
2019-03-28T08:24:30.120Z,0.90
2019-03-28T08:25:30.074Z,0.70
2019-03-28T08:26:30.404Z,1.40
2019-03-28T08:27:30.024Z,1.90
2019-03-28T08:28:29.978Z,0.80
2019-03-28T08:29:29.947Z,0.70
2019-03-28T08:30:29.911Z,1.20
2019-03-28T08:31:29.877Z,1.30
2019-03-28T08:32:29.842Z,0.80
2019-03-28T08:33:29.807Z,0.90
2019-03-28T08:34:31.267Z,1.20
2019-03-28T08:35:29.739Z,1.20
2019-03-28T08:36:29.787Z,0.70
2019-03-28T08:37:29.673Z,0.70
2019-03-28T08:38:29.788Z,1.50
2019-03-28T08:39:29.607Z,1.70
2019-03-28T08:40:29.575Z,2.10
2019-03-28T08:41:29.540Z,0.80
2019-03-28T08:42:29.521Z,1.20
2019-03-28T08:43:29.475Z,1.00
2019-03-28T08:44:29.465Z,1.00
2019-03-28T08:45:29.400Z,1.00
2019-03-28T08:46:29.462Z,1.20
2019-03-28T08:47:29.333Z,1.20
2019-03-28T08:48:29.303Z,1.20
2019-03-28T08:49:29.267Z,1.00
2019-03-28T08:50:29.232Z,1.50
2019-03-28T08:51:29.200Z,0.90
2019-03-28T08:52:29.179Z,1.40
2019-03-28T08:53:29.135Z,2.10
2019-03-28T08:54:29.100Z,1.50
2019-03-28T08:55:29.081Z,1.20
2019-03-28T08:56:29.146Z,0.90
2019-03-28T08:57:29.001Z,1.00
2019-03-28T08:58:28.970Z,1.10
2019-03-28T08:59:28.932Z,1.30
2019-03-28T09:00:35.036Z,0.90
2019-03-28T09:01:28.877Z,0.80
2019-03-28T09:02:28.846Z,1.60
2019-03-28T09:03:28.807Z,0.90
2019-03-28T09:04:28.914Z,1.10
2019-03-28T09:05:28.729Z,0.80
2019-03-28T09:06:28.692Z,1.40
2019-03-28T09:07:28.664Z,1.00
2019-03-28T09:08:28.677Z,0.80
2019-03-28T09:09:28.597Z,1.10
2019-03-28T09:10:28.777Z,1.40
2019-03-28T09:11:28.529Z,1.50
2019-03-28T09:12:28.496Z,1.30
2019-03-28T09:13:28.478Z,1.00
2019-03-28T09:14:31.699Z,1.40
2019-03-28T09:15:28.401Z,1.50
2019-03-28T09:16:28.359Z,1.10
2019-03-28T09:17:28.335Z,2.20
2019-03-28T09:18:28.313Z,1.10
2019-03-28T09:19:28.262Z,1.10
2019-03-28T09:20:28.227Z,0.90
2019-03-28T09:21:28.190Z,1.20
2019-03-28T09:22:28.164Z,2.80
2019-03-28T09:23:28.126Z,5.70
2019-03-28T09:24:28.088Z,3.50
2019-03-28T09:25:28.058Z,4.90
2019-03-28T09:26:28.020Z,2.40
2019-03-28T09:27:27.988Z,4.00
2019-03-28T09:28:27.953Z,2.00
2019-03-28T09:29:27.929Z,3.90
2019-03-28T09:30:27.893Z,3.90
2019-03-28T09:31:27.852Z,1.90
2019-03-28T09:32:27.822Z,1.60
2019-03-28T09:33:27.798Z,3.20
2019-03-28T09:34:27.753Z,2.30
2019-03-28T09:35:27.843Z,2.60
2019-03-28T09:36:27.730Z,1.50
2019-03-28T09:37:27.668Z,1.80
2019-03-28T09:38:27.627Z,2.60
2019-03-28T09:39:27.589Z,3.20
2019-03-28T09:40:27.552Z,4.80
2019-03-28T09:41:27.517Z,1.90
2019-03-28T09:42:27.487Z,3.40
2019-03-28T09:43:27.454Z,2.50
2019-03-28T09:44:27.418Z,1.90
2019-03-28T09:45:27.388Z,1.40
2019-03-28T09:46:27.355Z,3.30
2019-03-28T09:47:27.334Z,2.00
2019-03-28T09:48:27.294Z,1.40
2019-03-28T09:49:27.253Z,3.00
2019-03-28T09:50:27.219Z,1.60
2019-03-28T09:51:27.182Z,1.50
2019-03-28T09:52:27.155Z,1.60
2019-03-28T09:53:27.114Z,1.20
2019-03-28T09:54:27.094Z,1.80
2019-03-28T09:55:27.043Z,1.90
2019-03-28T09:56:27.011Z,1.50
2019-03-28T09:57:26.973Z,1.40
2019-03-28T09:58:26.947Z,1.30
2019-03-28T09:59:26.912Z,1.40
2019-03-28T10:00:26.918Z,6.00
2019-03-28T10:01:26.840Z,1.90
2019-03-28T10:02:26.857Z,1.30
2019-03-28T10:03:26.772Z,2.90
2019-03-28T10:04:26.742Z,2.10
2019-03-28T10:05:26.703Z,1.40
2019-03-28T10:06:26.677Z,2.00
2019-03-28T10:07:26.685Z,3.60
2019-03-28T10:08:26.790Z,1.70
2019-03-28T10:09:26.573Z,2.10
2019-03-28T10:10:26.540Z,2.20
2019-03-28T10:11:26.503Z,1.30
2019-03-28T10:12:26.470Z,2.70
2019-03-28T10:13:26.448Z,1.50
2019-03-28T10:14:26.406Z,1.10
2019-03-28T10:15:26.371Z,1.70
2019-03-28T10:16:26.342Z,1.30
2019-03-28T10:17:26.888Z,1.40
2019-03-28T10:18:26.278Z,1.20
2019-03-28T10:19:26.232Z,1.40
2019-03-28T10:20:26.265Z,1.90
2019-03-28T10:21:26.172Z,1.60
2019-03-28T10:22:26.136Z,1.30
2019-03-28T10:23:26.102Z,1.50
2019-03-28T10:24:26.098Z,1.40
2019-03-28T10:25:26.037Z,1.30
2019-03-28T10:26:25.998Z,1.10
2019-03-28T10:27:25.986Z,1.00
2019-03-28T10:28:25.944Z,1.10
2019-03-28T10:29:25.906Z,1.50
2019-03-28T10:30:25.902Z,1.20
2019-03-28T10:31:25.836Z,0.90
2019-03-28T10:32:25.796Z,1.20
2019-03-28T10:33:25.780Z,2.30
2019-03-28T10:34:25.750Z,2.70
2019-03-28T10:35:25.700Z,1.40
2019-03-28T10:36:27.820Z,1.40
2019-03-28T10:37:25.633Z,1.60
2019-03-28T10:38:25.608Z,1.20
2019-03-28T10:39:25.562Z,1.50
2019-03-28T10:40:25.532Z,1.30
2019-03-28T10:41:25.997Z,1.40
2019-03-28T10:42:25.455Z,1.30
2019-03-28T10:43:25.437Z,1.10
2019-03-28T10:44:25.392Z,1.50
2019-03-28T10:45:25.510Z,1.50
2019-03-28T10:46:25.326Z,1.30
2019-03-28T10:47:25.289Z,1.30
2019-03-28T10:48:25.341Z,1.30
2019-03-28T10:49:25.235Z,1.70
2019-03-28T10:50:25.190Z,1.70
2019-03-28T10:51:25.288Z,1.30
2019-03-28T10:52:25.134Z,1.40
2019-03-28T10:53:25.092Z,2.00
2019-03-28T10:54:25.840Z,24.40
2019-03-28T10:55:25.021Z,21.70
2019-03-28T10:56:25.021Z,17.10
2019-03-28T10:57:29.720Z,49.00
2019-03-28T10:58:24.977Z,96.80
2019-03-28T10:59:25.507Z,51.40
2019-03-28T11:00:25.850Z,45.30
2019-03-28T11:01:41.503Z,41.70
2019-03-28T11:02:24.790Z,31.00
2019-03-28T11:03:24.757Z,14.50
2019-03-28T11:04:24.725Z,10.40
2019-03-28T11:05:24.689Z,8.90
2019-03-28T11:06:24.653Z,9.50
2019-03-28T11:07:24.693Z,7.70
2019-03-28T11:08:24.580Z,8.50
2019-03-28T11:09:24.634Z,5.50
2019-03-28T11:10:24.547Z,4.80
2019-03-28T11:11:24.495Z,4.30
2019-03-28T11:12:24.465Z,6.00
2019-03-28T11:13:24.487Z,5.20
2019-03-28T11:14:24.386Z,3.30
2019-03-28T11:15:24.351Z,5.40
2019-03-28T11:16:24.326Z,3.60
2019-03-28T11:17:24.286Z,2.40
2019-03-28T11:18:24.250Z,2.60
2019-03-28T11:19:24.227Z,7.90
2019-03-28T11:20:24.194Z,1.60
2019-03-28T11:21:24.164Z,1.60
2019-03-28T11:22:24.111Z,1.80
2019-03-28T11:23:24.089Z,1.60
2019-03-28T11:24:24.051Z,1.30
2019-03-28T11:25:24.015Z,3.70
2019-03-28T11:26:23.986Z,1.30
2019-03-28T11:27:23.969Z,1.40
2019-03-28T11:28:23.912Z,1.50
2019-03-28T11:29:23.895Z,1.70
2019-03-28T11:30:23.850Z,1.30
2019-03-28T11:31:23.823Z,1.40
2019-03-28T11:32:23.777Z,2.70
2019-03-28T11:33:23.997Z,1.60
2019-03-28T11:34:23.733Z,1.30
2019-03-28T11:35:23.681Z,2.30
2019-03-28T11:36:23.650Z,1.10
2019-03-28T11:37:26.301Z,3.10
2019-03-28T11:38:23.574Z,1.70
2019-03-28T11:39:23.544Z,1.60
2019-03-28T11:40:24.614Z,1.60
2019-03-28T11:41:23.482Z,1.50
2019-03-28T11:42:23.447Z,1.60
2019-03-28T11:43:23.407Z,1.50
2019-03-28T11:44:23.373Z,1.30
2019-03-28T11:45:25.574Z,1.60
2019-03-28T11:46:23.306Z,1.30
2019-03-28T11:47:23.968Z,1.20
2019-03-28T11:48:23.237Z,1.00
2019-03-28T11:49:23.203Z,1.80
2019-03-28T11:50:23.173Z,1.60
2019-03-28T11:51:23.139Z,1.50
2019-03-28T11:52:23.123Z,1.20
2019-03-28T11:53:23.086Z,1.60
2019-03-28T11:54:23.049Z,2.10
2019-03-28T11:55:23.052Z,1.50
2019-03-28T11:56:22.969Z,1.40
2019-03-28T11:57:22.942Z,1.30
2019-03-28T11:58:22.902Z,1.70
2019-03-28T11:59:22.868Z,1.70
2019-03-28T12:00:22.995Z,2.40
2019-03-28T12:01:22.800Z,1.50
2019-03-28T12:02:25.235Z,1.40
2019-03-28T12:03:22.742Z,1.10
2019-03-28T12:04:22.744Z,1.50
2019-03-28T12:05:22.681Z,1.60
2019-03-28T12:06:22.786Z,1.20
2019-03-28T12:07:22.613Z,1.20
2019-03-28T12:08:22.571Z,2.50
2019-03-28T12:09:22.549Z,3.30
2019-03-28T12:10:22.503Z,1.50
2019-03-28T12:11:22.482Z,1.10
2019-03-28T12:12:22.435Z,1.10
2019-03-28T12:13:22.402Z,1.20
2019-03-28T12:14:22.427Z,1.70
2019-03-28T12:15:22.405Z,2.70
2019-03-28T12:16:22.312Z,1.40
2019-03-28T12:17:22.286Z,1.80
2019-03-28T12:18:24.995Z,1.40
2019-03-28T12:19:22.206Z,1.50
2019-03-28T12:20:22.190Z,1.40
2019-03-28T12:21:22.153Z,1.00
2019-03-28T12:22:22.118Z,1.10
2019-03-28T12:23:22.437Z,1.40
2019-03-28T12:24:22.047Z,1.20
2019-03-28T12:25:22.020Z,1.00
2019-03-28T12:26:21.981Z,1.50
2019-03-28T12:27:21.956Z,1.50
2019-03-28T12:28:21.914Z,1.40
2019-03-28T12:29:21.897Z,1.40
2019-03-28T12:30:21.856Z,1.70
2019-03-28T12:31:21.823Z,1.50
2019-03-28T12:32:22.140Z,2.00
2019-03-28T12:33:21.759Z,1.10
2019-03-28T12:34:21.726Z,1.50
2019-03-28T12:35:21.693Z,1.60
2019-03-28T12:36:21.665Z,1.10
2019-03-28T12:37:21.630Z,1.90
2019-03-28T12:38:21.778Z,1.20
2019-03-28T12:39:21.571Z,1.10
2019-03-28T12:40:21.553Z,1.40
2019-03-28T12:41:21.502Z,1.20
2019-03-28T12:42:21.481Z,1.00
2019-03-28T12:43:21.426Z,1.90
2019-03-28T12:44:21.398Z,1.10
2019-03-28T12:45:21.370Z,1.50
2019-03-28T12:46:21.435Z,1.30
2019-03-28T12:47:21.305Z,1.20
2019-03-28T12:48:21.281Z,1.40
2019-03-28T12:49:21.243Z,1.40
2019-03-28T12:50:21.207Z,1.40
2019-03-28T12:51:22.331Z,2.10
2019-03-28T12:52:21.136Z,1.40
2019-03-28T12:53:21.159Z,7.50
2019-03-28T12:54:21.088Z,1.50
2019-03-28T12:55:21.051Z,1.50
2019-03-28T12:56:21.007Z,1.50
2019-03-28T12:57:20.993Z,1.40
2019-03-28T12:58:20.942Z,1.70
2019-03-28T12:59:20.909Z,1.60
2019-03-28T13:00:20.879Z,1.50
2019-03-28T13:01:20.858Z,1.70
2019-03-28T13:02:29.945Z,2.10
2019-03-28T13:03:20.779Z,1.20
2019-03-28T13:04:20.775Z,1.00
2019-03-28T13:05:20.716Z,1.30
2019-03-28T13:06:20.772Z,1.60
2019-03-28T13:07:20.650Z,1.70
2019-03-28T13:08:20.621Z,2.80
2019-03-28T13:09:20.694Z,1.30
2019-03-28T13:10:20.552Z,3.80
2019-03-28T13:11:20.528Z,1.70
2019-03-28T13:12:20.499Z,1.30
2019-03-28T13:13:20.449Z,1.50
2019-03-28T13:14:21.471Z,1.70
2019-03-28T13:15:20.392Z,1.40
2019-03-28T13:16:20.362Z,1.20
2019-03-28T13:17:20.355Z,2.10
2019-03-28T13:18:20.292Z,1.40
2019-03-28T13:19:20.267Z,3.50
2019-03-28T13:20:22.248Z,1.30